Time;durP1;ratioP1;P1;durP2;ratioP2;P2;SDS_P1;SDS_P2;PMS_P1;PMS_P2;Temp;Humidity;BMP_temperature;BMP_pressure;BME280_temperature;BME280_humidity;BME280_pressure;Samples;Min_cycle;Max_cycle;Signal;HPM_P1;HPM_P2
2022/07/01 00:00:03;;;;;;;;;;;21.30;99.90;;;;;;4990076;28;19917;-80
2022/07/01 00:02:29;;;;;;;;;;;21.30;99.90;;;;;;4988985;28;19916;-80
2022/07/01 00:04:54;;;;;;;;;;;21.30;99.90;;;;;;4987058;28;19914;-81
2022/07/01 00:07:19;;;;;;;;;;;21.20;99.90;;;;;;4986369;28;20396;-81
2022/07/01 00:09:45;;;;;;;;;;;21.10;99.90;;;;;;4988471;28;20648;-80
2022/07/01 00:12:10;;;;;;;;;;;21.00;99.90;;;;;;4985726;28;20015;-80
2022/07/01 00:14:36;;;;;;;;;;;20.90;99.90;;;;;;4991141;28;19944;-81
2022/07/01 00:17:02;;;;;;;;;;;20.80;99.90;;;;;;4990030;28;19936;-81
2022/07/01 00:19:27;;;;;;;;;;;20.80;99.90;;;;;;4990651;28;20000;-80
2022/07/01 00:21:53;;;;;;;;;;;20.90;99.90;;;;;;4993856;28;19922;-78
2022/07/01 00:24:19;;;;;;;;;;;20.90;99.90;;;;;;4991739;28;20020;-78
2022/07/01 00:26:44;;;;;;;;;;;21.00;99.90;;;;;;4968889;28;19996;-81
2022/07/01 00:29:09;;;;;;;;;;;21.00;99.90;;;;;;4988169;28;19932;-81
2022/07/01 00:31:35;;;;;;;;;;;21.10;99.90;;;;;;4988932;28;20277;-81
2022/07/01 00:34:01;;;;;;;;;;;21.00;99.90;;;;;;4987990;28;20433;-80
2022/07/01 00:36:26;;;;;;;;;;;21.00;99.90;;;;;;4985874;28;19916;-81
2022/07/01 00:38:51;;;;;;;;;;;21.00;99.90;;;;;;4987196;28;20023;-81
2022/07/01 00:41:17;;;;;;;;;;;20.90;99.90;;;;;;4998925;28;19909;-81
2022/07/01 00:43:42;;;;;;;;;;;20.80;99.90;;;;;;4986903;28;19996;-81
2022/07/01 00:46:08;;;;;;;;;;;20.90;99.90;;;;;;4983873;28;19921;-80
2022/07/01 00:48:34;;;;;;;;;;;20.80;99.90;;;;;;4985650;28;19936;-81
2022/07/01 00:50:59;;;;;;;;;;;20.80;99.90;;;;;;4983922;28;19913;-81
2022/07/01 00:53:24;;;;;;;;;;;20.80;99.90;;;;;;4989360;28;19918;-81
2022/07/01 00:55:50;;;;;;;;;;;20.80;99.90;;;;;;5001059;28;19925;-80
2022/07/01 00:58:16;;;;;;;;;;;20.90;99.90;;;;;;5000691;28;19976;-82
2022/07/01 01:00:42;;;;;;;;;;;21.00;99.90;;;;;;5007287;28;19913;-81
2022/07/01 01:03:10;;;;;;;;;;;21.00;99.90;;;;;;5009053;28;19917;-81
2022/07/01 01:05:36;;;;;;;;;;;21.10;99.90;;;;;;5009708;28;20328;-82
2022/07/01 01:08:01;;;;;;;;;;;21.10;99.90;;;;;;5005516;28;19909;-81
2022/07/01 01:10:27;;;;;;;;;;;21.00;99.90;;;;;;5007418;28;19909;-82
2022/07/01 01:12:54;;;;;;;;;;;21.00;99.90;;;;;;5013062;28;20730;-81
2022/07/01 01:15:20;;;;;;;;;;;20.90;99.90;;;;;;5009634;28;19964;-81
2022/07/01 01:17:46;;;;;;;;;;;20.80;99.90;;;;;;5013193;28;19957;-81
2022/07/01 01:20:18;;;;;;;;;;;20.80;99.90;;;;;;5011331;28;20279;-81
2022/07/01 01:22:44;;;;;;;;;;;20.90;99.90;;;;;;5008678;28;20412;-82
2022/07/01 01:25:10;;;;;;;;;;;20.90;99.90;;;;;;5011337;28;19956;-81
2022/07/01 01:27:37;;;;;;;;;;;20.90;99.90;;;;;;5010003;28;19917;-81
2022/07/01 01:30:06;;;;;;;;;;;20.90;99.90;;;;;;5012886;28;19937;-82
2022/07/01 01:32:31;;;;;;;;;;;20.90;99.90;;;;;;5011863;28;19969;-81
2022/07/01 01:34:57;;;;;;;;;;;20.80;99.90;;;;;;5012212;28;19949;-82
2022/07/01 01:37:22;;;;;;;;;;;20.80;99.90;;;;;;5008900;28;20265;-82
2022/07/01 01:39:47;;;;;;;;;;;20.80;99.90;;;;;;5009655;28;20397;-81
2022/07/01 01:42:13;;;;;;;;;;;20.70;99.90;;;;;;5009644;28;19913;-81
2022/07/01 01:44:38;;;;;;;;;;;20.70;99.90;;;;;;5010518;28;19910;-82
2022/07/01 01:47:04;;;;;;;;;;;20.70;99.90;;;;;;5011476;28;20265;-82
2022/07/01 01:49:29;;;;;;;;;;;20.60;99.90;;;;;;5010498;28;19913;-81
2022/07/01 01:51:57;;;;;;;;;;;20.60;99.90;;;;;;5009056;28;20015;-81
2022/07/01 01:54:23;;;;;;;;;;;20.50;99.90;;;;;;5010037;28;20249;-82
2022/07/01 01:56:48;;;;;;;;;;;20.50;99.90;;;;;;5010992;28;19920;-82
2022/07/01 01:59:13;;;;;;;;;;;20.50;99.90;;;;;;5009491;28;20276;-82
2022/07/01 02:01:39;;;;;;;;;;;20.50;99.90;;;;;;5008950;28;21135;-82
2022/07/01 02:04:05;;;;;;;;;;;20.50;99.90;;;;;;5007980;28;20376;-82
2022/07/01 02:06:30;;;;;;;;;;;20.40;99.90;;;;;;5006448;28;19914;-82
2022/07/01 02:08:56;;;;;;;;;;;20.40;99.90;;;;;;5003597;28;20615;-82
2022/07/01 02:11:21;;;;;;;;;;;20.40;99.90;;;;;;5008704;28;19936;-82
2022/07/01 02:13:47;;;;;;;;;;;20.40;99.90;;;;;;5008986;28;19957;-82
2022/07/01 02:16:12;;;;;;;;;;;20.40;99.90;;;;;;5008888;28;19955;-82
2022/07/01 02:18:38;;;;;;;;;;;20.40;99.90;;;;;;5002960;28;19956;-82
2022/07/01 02:21:03;;;;;;;;;;;20.40;99.90;;;;;;5004637;28;19909;-82
2022/07/01 02:23:29;;;;;;;;;;;20.30;99.90;;;;;;5009786;28;20474;-82
2022/07/01 02:25:55;;;;;;;;;;;20.30;99.90;;;;;;5007771;28;19921;-82
2022/07/01 02:28:20;;;;;;;;;;;20.30;99.90;;;;;;5008349;28;19913;-81
2022/07/01 02:30:45;;;;;;;;;;;20.30;99.90;;;;;;5000954;28;20359;-80
2022/07/01 02:33:11;;;;;;;;;;;20.30;99.90;;;;;;5007929;28;19910;-81
2022/07/01 02:35:37;;;;;;;;;;;20.30;99.90;;;;;;5005397;28;19916;-82
2022/07/01 02:38:06;;;;;;;;;;;20.30;99.90;;;;;;5010730;28;20066;-81
2022/07/01 02:40:33;;;;;;;;;;;20.20;99.90;;;;;;5007186;28;19909;-81
2022/07/01 02:42:59;;;;;;;;;;;20.30;99.90;;;;;;5009760;28;19948;-82
2022/07/01 02:45:25;;;;;;;;;;;20.30;99.90;;;;;;5004685;28;19956;-82
2022/07/01 02:47:50;;;;;;;;;;;20.30;99.90;;;;;;5007973;28;19909;-82
2022/07/01 02:50:17;;;;;;;;;;;20.30;99.90;;;;;;5007113;28;19958;-81
2022/07/01 02:52:43;;;;;;;;;;;20.20;99.90;;;;;;5008208;28;19910;-81
2022/07/01 02:55:09;;;;;;;;;;;20.20;99.90;;;;;;5010284;28;20016;-81
2022/07/01 02:57:35;;;;;;;;;;;20.20;99.90;;;;;;5007997;28;19917;-81
2022/07/01 03:00:00;;;;;;;;;;;20.30;99.90;;;;;;5007415;28;20003;-81
2022/07/01 03:02:26;;;;;;;;;;;20.30;99.90;;;;;;5009662;28;19988;-81
2022/07/01 03:04:52;;;;;;;;;;;20.30;99.90;;;;;;5009033;28;19920;-81
2022/07/01 03:07:18;;;;;;;;;;;20.30;99.90;;;;;;5008073;28;19914;-81
2022/07/01 03:09:43;;;;;;;;;;;20.30;99.90;;;;;;5007040;28;19909;-81
2022/07/01 03:12:25;;;;;;;;;;;20.30;99.90;;;;;;5002381;28;19910;-81
2022/07/01 03:14:58;;;;;;;;;;;20.40;99.90;;;;;;5004749;28;20051;-81
2022/07/01 03:17:24;;;;;;;;;;;20.30;99.90;;;;;;5009122;28;20348;-81
2022/07/01 03:19:51;;;;;;;;;;;20.30;99.90;;;;;;5007222;28;19920;-81
2022/07/01 03:22:17;;;;;;;;;;;20.40;99.90;;;;;;5007520;28;19951;-81
2022/07/01 03:24:42;;;;;;;;;;;20.40;99.90;;;;;;5005292;28;19949;-81
2022/07/01 03:27:08;;;;;;;;;;;20.30;99.90;;;;;;5007516;28;19914;-81
2022/07/01 03:29:34;;;;;;;;;;;20.40;99.90;;;;;;4998065;28;20317;-81
2022/07/01 03:31:59;;;;;;;;;;;20.40;99.90;;;;;;5007796;28;20055;-81
2022/07/01 03:34:25;;;;;;;;;;;20.40;99.90;;;;;;5001753;28;19913;-82
2022/07/01 03:36:50;;;;;;;;;;;20.40;99.90;;;;;;5008503;28;19913;-82
2022/07/01 03:39:16;;;;;;;;;;;20.40;99.90;;;;;;5002359;28;19931;-82
2022/07/01 03:41:41;;;;;;;;;;;20.50;99.90;;;;;;5006219;28;20361;-82
2022/07/01 03:44:06;;;;;;;;;;;20.50;99.90;;;;;;5006793;28;19928;-81
2022/07/01 03:46:32;;;;;;;;;;;20.50;99.90;;;;;;5004803;28;19932;-82
2022/07/01 03:48:58;;;;;;;;;;;20.50;99.90;;;;;;5004341;28;20533;-82
2022/07/01 03:51:23;;;;;;;;;;;20.60;99.90;;;;;;5009265;28;20316;-82
2022/07/01 03:56:33;;;;;;;;;;;20.60;99.90;;;;;;5004989;28;20387;-81
2022/07/01 03:58:58;;;;;;;;;;;20.60;99.90;;;;;;5008411;28;19913;-81
2022/07/01 04:01:24;;;;;;;;;;;20.70;99.90;;;;;;5008265;28;19914;-81
2022/07/01 04:03:49;;;;;;;;;;;20.70;99.90;;;;;;5001537;28;19933;-81
2022/07/01 04:06:15;;;;;;;;;;;20.80;99.90;;;;;;5005107;28;19917;-80
2022/07/01 04:08:40;;;;;;;;;;;20.80;99.90;;;;;;5008430;28;20526;-81
2022/07/01 04:11:08;;;;;;;;;;;20.80;99.90;;;;;;5008317;28;20395;-81
2022/07/01 04:13:34;;;;;;;;;;;20.90;99.90;;;;;;5006936;28;19913;-80
2022/07/01 04:16:00;;;;;;;;;;;20.90;99.90;;;;;;5008966;28;19916;-80
2022/07/01 04:18:26;;;;;;;;;;;20.90;99.90;;;;;;5008364;28;19948;-80
2022/07/01 04:23:35;;;;;;;;;;;21.00;99.90;;;;;;5006050;28;19924;-79
2022/07/01 04:26:01;;;;;;;;;;;21.10;99.90;;;;;;5006182;28;19913;-80
2022/07/01 04:28:26;;;;;;;;;;;21.10;99.90;;;;;;5007002;28;19917;-81
2022/07/01 04:30:52;;;;;;;;;;;21.20;99.90;;;;;;5002045;28;19909;-80
2022/07/01 04:33:17;;;;;;;;;;;21.30;99.90;;;;;;5005457;28;20386;-80
2022/07/01 04:35:42;;;;;;;;;;;21.30;99.90;;;;;;5003616;28;20357;-81
2022/07/01 04:38:08;;;;;;;;;;;21.30;99.90;;;;;;5004167;28;19909;-79
2022/07/01 04:40:34;;;;;;;;;;;21.40;99.90;;;;;;5005523;28;19921;-81
2022/07/01 04:42:59;;;;;;;;;;;21.30;99.90;;;;;;5006695;28;19909;-81
2022/07/01 04:45:25;;;;;;;;;;;21.40;99.90;;;;;;5006059;28;19960;-80
2022/07/01 04:47:50;;;;;;;;;;;21.50;99.90;;;;;;5006280;28;19909;-80
2022/07/01 04:50:15;;;;;;;;;;;21.50;99.90;;;;;;5005680;28;19909;-80
2022/07/01 04:52:41;;;;;;;;;;;21.60;99.90;;;;;;5007067;28;19910;-81
2022/07/01 04:55:06;;;;;;;;;;;21.70;99.90;;;;;;5006365;28;19922;-80
2022/07/01 04:57:32;;;;;;;;;;;21.70;99.90;;;;;;5007534;28;19909;-80
2022/07/01 04:59:57;;;;;;;;;;;21.70;99.90;;;;;;5007745;28;19992;-81
2022/07/01 05:02:23;;;;;;;;;;;21.80;99.90;;;;;;5005265;28;19918;-81
2022/07/01 05:04:48;;;;;;;;;;;21.90;99.90;;;;;;5004526;28;19949;-80
2022/07/01 05:07:29;;;;;;;;;;;21.90;99.90;;;;;;5006178;28;19913;-81
2022/07/01 05:09:55;;;;;;;;;;;22.00;99.90;;;;;;5008550;28;19913;-82
2022/07/01 05:12:20;;;;;;;;;;;22.10;99.90;;;;;;5006988;28;19996;-81
2022/07/01 05:14:46;;;;;;;;;;;22.10;99.90;;;;;;5005093;28;20000;-81
2022/07/01 05:17:11;;;;;;;;;;;22.20;99.90;;;;;;5001595;28;19910;-80
2022/07/01 05:22:21;;;;;;;;;;;22.30;99.90;;;;;;5006139;28;19924;-82
2022/07/01 05:24:46;;;;;;;;;;;22.40;99.90;;;;;;5005944;28;19988;-82
2022/07/01 05:27:12;;;;;;;;;;;22.50;99.90;;;;;;5004919;28;19913;-82
2022/07/01 05:29:37;;;;;;;;;;;22.70;99.90;;;;;;5007459;28;20352;-82
2022/07/01 05:32:06;;;;;;;;;;;22.90;99.90;;;;;;5004746;28;19916;-84
2022/07/01 05:34:31;;;;;;;;;;;23.10;99.90;;;;;;5006272;28;19917;-83
2022/07/01 05:36:57;;;;;;;;;;;23.20;99.90;;;;;;5006798;28;20338;-82
2022/07/01 05:39:22;;;;;;;;;;;23.40;99.90;;;;;;5006242;28;20396;-81
2022/07/01 05:41:48;;;;;;;;;;;23.60;99.90;;;;;;5006705;28;19914;-83
2022/07/01 05:44:13;;;;;;;;;;;23.80;99.90;;;;;;5012099;28;19967;-83
2022/07/01 05:46:39;;;;;;;;;;;24.20;99.90;;;;;;5005737;28;19925;-81
2022/07/01 05:49:05;;;;;;;;;;;24.30;99.90;;;;;;5003818;28;20284;-82
2022/07/01 05:51:30;;;;;;;;;;;24.40;99.90;;;;;;5006453;28;19910;-83
2022/07/01 05:53:56;;;;;;;;;;;24.60;99.90;;;;;;5002759;28;19940;-89
2022/07/01 05:56:22;;;;;;;;;;;24.60;99.90;;;;;;5009540;28;19920;-81
2022/07/01 05:58:47;;;;;;;;;;;24.70;99.90;;;;;;5010729;28;20368;-82
2022/07/01 06:01:13;;;;;;;;;;;24.60;99.90;;;;;;5007143;28;19913;-80
2022/07/01 06:03:38;;;;;;;;;;;24.50;99.90;;;;;;5009162;28;19909;-78
2022/07/01 06:06:04;;;;;;;;;;;24.40;99.90;;;;;;5009057;28;20390;-79
2022/07/01 06:08:29;;;;;;;;;;;24.40;99.90;;;;;;5011402;28;20339;-78
2022/07/01 06:10:55;;;;;;;;;;;24.50;99.90;;;;;;5007588;28;19917;-79
2022/07/01 06:13:20;;;;;;;;;;;24.60;99.90;;;;;;5009634;28;19910;-79
2022/07/01 06:15:46;;;;;;;;;;;24.40;99.90;;;;;;5007672;28;19913;-76
2022/07/01 06:18:11;;;;;;;;;;;24.50;99.90;;;;;;5007314;28;19910;-89
2022/07/01 06:20:37;;;;;;;;;;;24.50;99.90;;;;;;5009495;28;19967;-81
2022/07/01 06:23:02;;;;;;;;;;;24.50;99.90;;;;;;5008698;28;20009;-84
2022/07/01 06:25:27;;;;;;;;;;;24.40;99.90;;;;;;5009163;28;19909;-80
2022/07/01 06:27:53;;;;;;;;;;;24.30;99.90;;;;;;5009996;28;19913;-78
2022/07/01 06:30:18;;;;;;;;;;;24.40;99.90;;;;;;5001602;28;19909;-85
2022/07/01 06:32:44;;;;;;;;;;;24.50;99.90;;;;;;5001620;28;19909;-83
2022/07/01 06:35:09;;;;;;;;;;;24.60;99.90;;;;;;5005347;28;19963;-85
2022/07/01 06:37:35;;;;;;;;;;;24.60;99.90;;;;;;5002454;28;19917;-80
2022/07/01 06:40:02;;;;;;;;;;;24.70;99.90;;;;;;5008941;28;19920;-78
2022/07/01 06:42:28;;;;;;;;;;;24.70;99.90;;;;;;5010019;28;19909;-82
2022/07/01 06:44:53;;;;;;;;;;;24.80;99.90;;;;;;4999258;28;19917;-80
2022/07/01 06:47:18;;;;;;;;;;;24.90;99.90;;;;;;5009458;28;20300;-80
2022/07/01 06:49:44;;;;;;;;;;;24.90;99.90;;;;;;5004929;28;19914;-82
2022/07/01 06:52:09;;;;;;;;;;;25.10;99.90;;;;;;5008617;28;19955;-82
2022/07/01 06:54:37;;;;;;;;;;;25.00;99.90;;;;;;4995308;28;19928;-83
2022/07/01 06:57:03;;;;;;;;;;;25.10;99.90;;;;;;4972271;28;19914;-82
2022/07/01 06:59:29;;;;;;;;;;;25.10;99.90;;;;;;4971525;28;19917;-82
2022/07/01 07:01:54;;;;;;;;;;;25.30;99.90;;;;;;4984318;28;19983;-81
2022/07/01 07:04:20;;;;;;;;;;;25.40;99.90;;;;;;4989461;28;19909;-81
2022/07/01 07:06:45;;;;;;;;;;;25.40;99.90;;;;;;4989147;28;19913;-82
2022/07/01 07:09:11;;;;;;;;;;;25.40;99.90;;;;;;4991777;28;19916;-82
2022/07/01 07:11:36;;;;;;;;;;;25.20;99.90;;;;;;4990010;28;19921;-83
2022/07/01 07:14:01;;;;;;;;;;;25.20;99.90;;;;;;4989394;28;20109;-83
2022/07/01 07:16:27;;;;;;;;;;;25.30;99.90;;;;;;4988967;28;19914;-81
2022/07/01 07:18:52;;;;;;;;;;;25.30;99.90;;;;;;4985248;28;19941;-83
2022/07/01 07:21:18;;;;;;;;;;;25.40;99.90;;;;;;4992015;28;19905;-82
2022/07/01 07:23:44;;;;;;;;;;;25.30;99.90;;;;;;4989765;28;20393;-82
2022/07/01 07:26:09;;;;;;;;;;;25.20;99.90;;;;;;4985991;28;20004;-82
2022/07/01 07:28:35;;;;;;;;;;;24.90;99.90;;;;;;4988947;28;20384;-83
2022/07/01 07:31:21;;;;;;;;;;;24.80;99.90;;;;;;4988977;28;20273;-82
2022/07/01 07:33:46;;;;;;;;;;;24.90;99.90;;;;;;4975485;28;19917;-82
2022/07/01 07:36:12;;;;;;;;;;;24.90;99.90;;;;;;4989290;28;19913;-82
2022/07/01 07:38:38;;;;;;;;;;;24.90;99.90;;;;;;4990105;28;19937;-81
2022/07/01 07:41:04;;;;;;;;;;;25.10;99.90;;;;;;4987527;28;19910;-80
2022/07/01 07:43:29;;;;;;;;;;;25.10;99.90;;;;;;4990853;28;19964;-83
2022/07/01 07:45:54;;;;;;;;;;;25.20;99.90;;;;;;4991046;28;20092;-82
2022/07/01 07:48:20;;;;;;;;;;;25.20;99.90;;;;;;4988016;28;19949;-84
2022/07/01 07:50:47;;;;;;;;;;;25.20;99.90;;;;;;4989215;28;20004;-83
2022/07/01 07:53:12;;;;;;;;;;;25.10;99.90;;;;;;4987825;28;20371;-82
2022/07/01 07:55:38;;;;;;;;;;;24.90;99.90;;;;;;5001352;28;20004;-82
2022/07/01 07:58:04;;;;;;;;;;;24.90;99.90;;;;;;5007856;28;19944;-82
2022/07/01 08:00:29;;;;;;;;;;;24.90;99.90;;;;;;5006414;28;19909;-83
2022/07/01 08:02:55;;;;;;;;;;;25.00;99.90;;;;;;5000440;28;19924;-82
2022/07/01 08:05:20;;;;;;;;;;;24.90;99.90;;;;;;5003283;28;19909;-79
2022/07/01 08:07:46;;;;;;;;;;;24.80;99.90;;;;;;5006385;28;19964;-78
2022/07/01 08:10:12;;;;;;;;;;;24.90;99.90;;;;;;5002548;28;20324;-78
2022/07/01 08:12:38;;;;;;;;;;;25.00;99.90;;;;;;5012548;28;20073;-77
2022/07/01 08:15:03;;;;;;;;;;;25.10;99.90;;;;;;5003362;28;19909;-76
2022/07/01 08:17:29;;;;;;;;;;;25.20;99.90;;;;;;5006993;28;20163;-76
2022/07/01 08:19:55;;;;;;;;;;;25.10;99.90;;;;;;5008127;28;20139;-76
2022/07/01 08:22:20;;;;;;;;;;;25.10;99.90;;;;;;5004226;28;19909;-76
2022/07/01 08:24:46;;;;;;;;;;;25.10;99.90;;;;;;5008249;28;20419;-77
2022/07/01 08:27:12;;;;;;;;;;;25.20;99.90;;;;;;5006089;28;19924;-76
2022/07/01 08:29:38;;;;;;;;;;;25.40;99.90;;;;;;4997472;28;19967;-77
2022/07/01 08:32:03;;;;;;;;;;;25.60;99.90;;;;;;5003613;28;19972;-81
2022/07/01 08:34:29;;;;;;;;;;;25.80;99.90;;;;;;5001860;28;19971;-77
2022/07/01 08:36:54;;;;;;;;;;;25.80;99.90;;;;;;5004080;28;19967;-76
2022/07/01 08:39:20;;;;;;;;;;;25.90;99.90;;;;;;5006854;28;19916;-78
2022/07/01 08:41:47;;;;;;;;;;;25.90;99.90;;;;;;5006357;28;19919;-76
2022/07/01 08:44:12;;;;;;;;;;;26.10;99.90;;;;;;5008410;28;20345;-78
2022/07/01 08:46:38;;;;;;;;;;;26.20;99.90;;;;;;5008228;28;19913;-79
2022/07/01 08:49:03;;;;;;;;;;;26.20;99.80;;;;;;5006647;28;19920;-84
2022/07/01 08:51:29;;;;;;;;;;;26.50;98.30;;;;;;4999362;28;19948;-80
2022/07/01 08:53:54;;;;;;;;;;;26.60;98.60;;;;;;4999347;28;20349;-77
2022/07/01 08:59:06;;;;;;;;;;;26.50;99.20;;;;;;5000642;28;19916;-78
2022/07/01 09:01:32;;;;;;;;;;;26.20;99.90;;;;;;4997503;28;19961;-77
2022/07/01 09:04:12;;;;;;;;;;;26.20;99.70;;;;;;5008051;28;19912;-78
2022/07/01 09:06:38;;;;;;;;;;;26.20;98.30;;;;;;5000911;28;19919;-78
2022/07/01 09:09:11;;;;;;;;;;;26.30;98.70;;;;;;5002227;28;20000;-86
2022/07/01 09:11:36;;;;;;;;;;;26.40;97.70;;;;;;5003191;28;19992;-83
2022/07/01 09:14:09;;;;;;;;;;;26.50;97.30;;;;;;4999714;28;20004;-84
2022/07/01 09:16:41;;;;;;;;;;;26.70;96.90;;;;;;5004524;28;19909;-84
2022/07/01 09:19:07;;;;;;;;;;;26.80;95.40;;;;;;5007261;28;19913;-86
2022/07/01 09:21:33;;;;;;;;;;;26.80;95.10;;;;;;5008983;28;20298;-82
2022/07/01 09:23:58;;;;;;;;;;;26.70;95.40;;;;;;5009959;28;19913;-84
2022/07/01 09:26:26;;;;;;;;;;;26.30;96.40;;;;;;5010797;28;20008;-84
2022/07/01 09:28:55;;;;;;;;;;;26.10;97.40;;;;;;5011451;28;19917;-83
2022/07/01 09:34:48;;;;;;;;;;;25.50;99.60;;;;;;4939128;29;20503;-84
2022/07/01 09:37:20;;;;;;;;;;;24.90;99.90;;;;;;4923452;29;20455;-84
2022/07/01 09:39:47;;;;;;;;;;;24.20;99.90;;;;;;4973068;28;19917;-83
2022/07/01 09:42:13;;;;;;;;;;;23.70;99.90;;;;;;5003673;28;19909;-84
2022/07/01 09:44:54;;;;;;;;;;;23.40;99.90;;;;;;5008165;28;20457;-83
2022/07/01 09:47:22;;;;;;;;;;;23.20;99.90;;;;;;5007810;28;19912;-84
2022/07/01 09:49:47;;;;;;;;;;;23.00;99.90;;;;;;5009323;28;19909;-81
2022/07/01 09:52:12;;;;;;;;;;;22.60;99.90;;;;;;5011364;28;20436;-83
2022/07/01 09:54:38;;;;;;;;;;;22.20;99.90;;;;;;5011604;28;20085;-80
2022/07/01 09:57:03;;;;;;;;;;;22.00;99.90;;;;;;5009638;28;19932;-83
2022/07/01 09:59:52;;;;;;;;;;;21.90;99.90;;;;;;5006451;28;20365;-81
2022/07/01 10:02:19;;;;;;;;;;;21.60;99.90;;;;;;4993389;28;20403;-83
2022/07/01 10:05:05;;;;;;;;;;;21.40;99.90;;;;;;5010751;28;19960;-84
2022/07/01 10:07:41;;;;;;;;;;;21.20;99.90;;;;;;5011384;28;19955;-85
2022/07/01 10:10:12;;;;;;;;;;;21.10;99.90;;;;;;5007006;28;19917;-84
2022/07/01 10:12:39;;;;;;;;;;;21.00;99.90;;;;;;5009209;28;19913;-83
2022/07/01 10:15:05;;;;;;;;;;;21.10;99.90;;;;;;5009239;28;19916;-82
2022/07/01 10:17:33;;;;;;;;;;;21.30;99.90;;;;;;5010640;28;19913;-82
2022/07/01 10:20:06;;;;;;;;;;;21.60;99.90;;;;;;5007045;28;19964;-83
2022/07/01 10:22:34;;;;;;;;;;;22.00;99.90;;;;;;5010327;28;19916;-83
2022/07/01 10:25:18;;;;;;;;;;;22.00;99.90;;;;;;5003965;28;19971;-82
2022/07/01 10:27:44;;;;;;;;;;;21.70;99.90;;;;;;5008262;28;20000;-84
2022/07/01 10:30:15;;;;;;;;;;;21.60;99.90;;;;;;5003425;28;20012;-84
2022/07/01 10:32:48;;;;;;;;;;;21.40;99.90;;;;;;5013879;28;19917;-82
2022/07/01 10:35:14;;;;;;;;;;;21.40;99.90;;;;;;5010061;28;20024;-85
2022/07/01 10:37:56;;;;;;;;;;;21.50;99.90;;;;;;5003748;28;20408;-83
2022/07/01 10:40:39;;;;;;;;;;;21.60;99.90;;;;;;5010066;28;19941;-85
2022/07/01 10:43:04;;;;;;;;;;;21.30;99.90;;;;;;5011231;28;19909;-81
2022/07/01 10:45:40;;;;;;;;;;;21.00;99.90;;;;;;5007411;28;19917;-84
2022/07/01 10:48:19;;;;;;;;;;;20.70;99.90;;;;;;5011034;28;19913;-83
2022/07/01 10:50:45;;;;;;;;;;;20.60;99.90;;;;;;5011587;28;20428;-82
2022/07/01 10:53:11;;;;;;;;;;;20.60;99.90;;;;;;5006945;28;19948;-82
2022/07/01 10:55:37;;;;;;;;;;;20.40;99.90;;;;;;5008736;28;19963;-84
2022/07/01 10:58:03;;;;;;;;;;;20.30;99.90;;;;;;5016837;28;19914;-82
2022/07/01 11:00:31;;;;;;;;;;;20.20;99.90;;;;;;5012176;28;19909;-82
2022/07/01 11:03:07;;;;;;;;;;;20.30;99.90;;;;;;5014117;28;20309;-85
2022/07/01 11:05:33;;;;;;;;;;;20.20;99.90;;;;;;5012168;28;19910;-83
2022/07/01 11:07:59;;;;;;;;;;;20.00;99.90;;;;;;5011797;28;20410;-83
2022/07/01 11:10:24;;;;;;;;;;;19.90;99.90;;;;;;5005283;28;19948;-79
2022/07/01 11:12:51;;;;;;;;;;;19.80;99.90;;;;;;5003570;28;20000;-79
2022/07/01 11:15:17;;;;;;;;;;;19.80;99.90;;;;;;5008995;28;19909;-88
2022/07/01 11:17:47;;;;;;;;;;;19.80;99.90;;;;;;5007680;28;19909;-84
2022/07/01 11:20:12;;;;;;;;;;;20.00;99.90;;;;;;5014639;28;19914;-83
2022/07/01 11:22:38;;;;;;;;;;;19.80;99.90;;;;;;5006436;28;19909;-81
2022/07/01 11:25:11;;;;;;;;;;;19.60;99.90;;;;;;5009931;28;20257;-83
2022/07/01 11:27:54;;;;;;;;;;;19.60;99.90;;;;;;5008526;28;19920;-83
2022/07/01 11:30:20;;;;;;;;;;;19.40;99.90;;;;;;5000351;28;19956;-81
2022/07/01 11:32:47;;;;;;;;;;;19.30;99.90;;;;;;5004168;28;19913;-84
2022/07/01 11:41:21;;;;;;;;;;;19.60;99.90;;;;;;5000088;28;20418;-80
2022/07/01 11:43:47;;;;;;;;;;;19.60;99.90;;;;;;5007167;28;19920;-84
2022/07/01 11:46:12;;;;;;;;;;;19.70;99.90;;;;;;5006814;28;20624;-88
2022/07/01 11:48:39;;;;;;;;;;;19.60;99.90;;;;;;5004717;28;19917;-78
2022/07/01 11:51:07;;;;;;;;;;;19.40;99.90;;;;;;5003595;28;19909;-79
2022/07/01 11:53:33;;;;;;;;;;;19.50;99.90;;;;;;4992570;28;19912;-90
2022/07/01 11:55:58;;;;;;;;;;;19.40;99.90;;;;;;5002648;28;19925;-83
2022/07/01 11:58:24;;;;;;;;;;;19.20;99.90;;;;;;5008046;28;19909;-83
2022/07/01 12:00:49;;;;;;;;;;;18.90;99.90;;;;;;5006143;28;19909;-83
2022/07/01 12:03:30;;;;;;;;;;;18.90;99.90;;;;;;5008595;28;20048;-83
2022/07/01 12:05:56;;;;;;;;;;;19.00;99.90;;;;;;4998908;28;20004;-77
2022/07/01 12:08:21;;;;;;;;;;;19.10;99.90;;;;;;5005116;28;20032;-77
2022/07/01 12:10:47;;;;;;;;;;;19.20;99.90;;;;;;4997115;28;20386;-81
2022/07/01 12:13:22;;;;;;;;;;;19.10;99.90;;;;;;5002646;28;19920;-81
2022/07/01 12:15:47;;;;;;;;;;;19.20;99.90;;;;;;5002966;28;19913;-80
2022/07/01 12:18:14;;;;;;;;;;;18.90;99.90;;;;;;5004024;28;20339;-80
2022/07/01 12:20:46;;;;;;;;;;;19.00;99.90;;;;;;5005994;28;19916;-79
2022/07/01 12:23:12;;;;;;;;;;;19.10;99.90;;;;;;5006963;28;19916;-80
2022/07/01 12:25:38;;;;;;;;;;;19.80;99.90;;;;;;5007636;28;20372;-81
2022/07/01 12:28:04;;;;;;;;;;;20.60;99.90;;;;;;5007454;28;19915;-81
2022/07/01 12:30:33;;;;;;;;;;;21.20;99.90;;;;;;5005286;28;19910;-84
2022/07/01 12:33:07;;;;;;;;;;;21.10;99.90;;;;;;5007176;28;19917;-87
2022/07/01 12:35:37;;;;;;;;;;;21.10;99.90;;;;;;5008872;28;19999;-86
2022/07/01 12:38:07;;;;;;;;;;;20.80;99.90;;;;;;5007994;28;19909;-86
2022/07/01 12:40:33;;;;;;;;;;;20.70;99.90;;;;;;5007768;28;19915;-83
2022/07/01 12:43:06;;;;;;;;;;;20.60;99.90;;;;;;5006447;28;20342;-79
2022/07/01 12:45:32;;;;;;;;;;;20.30;99.90;;;;;;5005736;28;20371;-80
2022/07/01 12:47:57;;;;;;;;;;;20.10;99.90;;;;;;5005968;28;19909;-79
2022/07/01 12:50:24;;;;;;;;;;;19.70;99.90;;;;;;5005148;28;19921;-78
2022/07/01 12:53:03;;;;;;;;;;;19.70;99.90;;;;;;5007470;28;19910;-80
2022/07/01 12:55:36;;;;;;;;;;;19.60;99.90;;;;;;5008848;28;19917;-81
2022/07/01 12:58:02;;;;;;;;;;;19.80;99.90;;;;;;5001936;28;19909;-80
2022/07/01 13:00:29;;;;;;;;;;;20.00;99.90;;;;;;5009010;28;20344;-79
2022/07/01 13:02:56;;;;;;;;;;;20.00;99.90;;;;;;5008357;28;20289;-82
2022/07/01 13:05:22;;;;;;;;;;;20.20;99.90;;;;;;5002556;28;20012;-81
2022/07/01 13:07:48;;;;;;;;;;;20.10;99.90;;;;;;5010283;28;20350;-79
2022/07/01 13:10:14;;;;;;;;;;;20.10;99.90;;;;;;5017682;28;20418;-76
2022/07/01 13:12:39;;;;;;;;;;;19.80;99.90;;;;;;5006759;28;20364;-89
2022/07/01 13:15:05;;;;;;;;;;;19.60;99.90;;;;;;5003130;28;19909;-77
2022/07/01 13:17:30;;;;;;;;;;;19.50;99.90;;;;;;5007362;28;19921;-78
2022/07/01 13:19:56;;;;;;;;;;;19.40;99.90;;;;;;5009369;28;19909;-79
2022/07/01 13:22:22;;;;;;;;;;;19.30;99.90;;;;;;5006191;28;19933;-76
2022/07/01 13:24:47;;;;;;;;;;;19.30;99.90;;;;;;5010760;28;19940;-77
2022/07/01 13:27:13;;;;;;;;;;;19.20;99.90;;;;;;5007577;28;19944;-79
2022/07/01 13:29:38;;;;;;;;;;;19.10;99.90;;;;;;5009416;28;20327;-78
2022/07/01 13:32:04;;;;;;;;;;;19.10;99.90;;;;;;5006804;28;20427;-78
2022/07/01 13:34:29;;;;;;;;;;;19.10;99.90;;;;;;5013698;28;19909;-82
2022/07/01 13:36:55;;;;;;;;;;;19.00;99.90;;;;;;5007705;28;19925;-83
2022/07/01 13:39:21;;;;;;;;;;;18.90;99.90;;;;;;5006883;28;21037;-79
2022/07/01 13:41:46;;;;;;;;;;;18.90;99.90;;;;;;5002478;28;20372;-78
2022/07/01 13:44:11;;;;;;;;;;;19.00;99.90;;;;;;5002491;28;19936;-84
2022/07/01 13:46:38;;;;;;;;;;;19.00;99.90;;;;;;5002708;28;20299;-83
2022/07/01 13:49:03;;;;;;;;;;;18.90;99.90;;;;;;5005836;28;19917;-82
2022/07/01 13:51:29;;;;;;;;;;;18.90;99.90;;;;;;5008126;28;19909;-84
2022/07/01 13:53:54;;;;;;;;;;;19.00;99.90;;;;;;5002991;28;19917;-81
2022/07/01 13:56:21;;;;;;;;;;;19.10;99.90;;;;;;5007423;28;19918;-84
2022/07/01 13:58:49;;;;;;;;;;;19.00;99.90;;;;;;5001274;28;19909;-79
2022/07/01 14:01:18;;;;;;;;;;;18.90;99.90;;;;;;5010084;28;20439;-80
2022/07/01 14:03:44;;;;;;;;;;;18.80;99.90;;;;;;5008270;28;19917;-81
2022/07/01 14:06:09;;;;;;;;;;;18.80;99.90;;;;;;5008542;28;20265;-81
2022/07/01 14:08:34;;;;;;;;;;;18.90;99.90;;;;;;5006593;28;19909;-79
2022/07/01 14:11:00;;;;;;;;;;;19.00;99.90;;;;;;5011518;28;19905;-80
2022/07/01 14:13:25;;;;;;;;;;;19.00;99.90;;;;;;4999440;28;19917;-81
2022/07/01 14:15:51;;;;;;;;;;;19.10;99.90;;;;;;5001349;28;19913;-81
2022/07/01 14:18:16;;;;;;;;;;;19.20;99.90;;;;;;5003354;28;20081;-79
2022/07/01 14:20:42;;;;;;;;;;;19.20;99.90;;;;;;5010904;28;20344;-79
2022/07/01 14:23:07;;;;;;;;;;;19.10;99.90;;;;;;5010499;28;19929;-76
2022/07/01 14:25:33;;;;;;;;;;;19.10;99.90;;;;;;5009029;28;19913;-77
2022/07/01 14:27:58;;;;;;;;;;;19.00;99.90;;;;;;5011132;28;19921;-77
2022/07/01 14:30:24;;;;;;;;;;;18.80;99.90;;;;;;5006712;28;20488;-77
2022/07/01 14:32:49;;;;;;;;;;;18.80;99.90;;;;;;5009754;28;19909;-77